Accueil
METAR-TAF:

METAR-TAF

Aéroports :

Bombay, Inde

latitude: 19-05-53N, longitude: 072-50-02E, altitude: 4 m

Observation

Le bulletin a été fait il y a 27 minutes, à 10:00 UTC
Vent 16 kt de ouest/sud-ouest
Température 32°C
Humidité 59%
Pression 1005 hPa
Visibilité: 6000 m
Quelques nuages à une hauteur de 2500 ft
Nuages épars à une hauteur de 10000 ft

METAR: VAJJ 051000Z 24016KT 6000 FEW025 SCT100 32/23 Q1005 NOSIG

Heure: 15:57 (10:27 UTC)


TAF: absent

Observations et prévisions météorologiques de plus de 4000 aéroports (messages METAR et TAF).

Les stations disponibles sont représentées par des disques jaunes et rouges sur la carte.

Passer la souris dessus pour voir le nom de la station.

Cliquer dessus pour voir les observations et prévisions météorologiques.

Pour changer de carte: cliquez sur les boutons verts avec une croix noire pour zoomer, sur le bouton vert avec un tiret pour effectuer un zoom arrière, ou sur les flèches vertes pour les cartes adjacentes.


METAR-TAF: